createdAt,value
2019-05-01T00:01:11.891Z,5.5804
2019-05-01T00:03:16.185Z,5.5603
2019-05-01T00:05:19.946Z,5.5402
2019-05-01T00:07:24.011Z,5.4898
2019-05-01T00:09:27.770Z,5.4596
2019-05-01T00:11:31.732Z,5.4193
2019-05-01T00:13:35.401Z,5.3790
2019-05-01T00:15:38.825Z,5.3085
2019-05-01T00:17:42.539Z,5.2783
2019-05-01T00:19:46.087Z,5.2179
2019-05-01T00:21:50.015Z,5.1776
2019-05-01T00:23:53.753Z,5.0970
2019-05-01T00:25:57.825Z,5.0568
2019-05-01T00:28:01.809Z,4.9863
2019-05-01T00:30:05.257Z,4.9561
2019-05-01T00:32:08.957Z,4.8755
2019-05-01T00:34:12.617Z,4.8453
2019-05-01T00:36:16.296Z,4.8352
2019-05-01T00:38:20.025Z,4.7849
2019-05-01T00:40:23.664Z,4.7345
2019-05-01T00:42:27.711Z,4.7345
2019-05-01T00:44:31.426Z,4.7748
2019-05-01T00:46:35.091Z,4.7546
2019-05-01T00:48:38.170Z,4.7546
2019-05-01T00:50:41.437Z,4.7546
2019-05-01T00:52:45.959Z,4.7345
2019-05-01T00:54:49.567Z,4.7244
2019-05-01T00:56:53.454Z,4.7043
2019-05-01T00:58:57.052Z,4.6539
2019-05-01T01:01:00.686Z,4.6539
2019-05-01T01:03:04.097Z,4.6036
2019-05-01T01:05:07.618Z,4.5532
2019-05-01T01:07:11.086Z,4.5029
2019-05-01T01:09:14.959Z,4.4727
2019-05-01T01:11:18.693Z,4.4424
2019-05-01T01:13:23.095Z,4.4122
2019-05-01T01:15:26.732Z,4.4223
2019-05-01T01:17:30.404Z,4.3719
2019-05-01T01:19:33.955Z,4.3317
2019-05-01T01:21:37.999Z,4.3216
2019-05-01T01:23:41.911Z,4.3216
2019-05-01T01:25:45.517Z,4.3216
2019-05-01T01:27:49.280Z,4.2914
2019-05-01T01:29:53.462Z,4.2712
2019-05-01T01:31:58.044Z,4.2712
2019-05-01T01:34:02.238Z,4.2712
2019-05-01T01:36:05.900Z,4.2712
2019-05-01T01:38:09.320Z,4.2410
2019-05-01T01:40:13.687Z,4.2410
2019-05-01T01:42:17.381Z,4.2410
2019-05-01T01:44:21.012Z,4.2410
2019-05-01T01:46:24.483Z,4.2209
2019-05-01T01:48:28.267Z,4.2007
2019-05-01T01:50:32.064Z,4.1605
2019-05-01T01:52:34.709Z,4.1403
2019-05-01T01:54:38.423Z,4.1202
2019-05-01T01:56:42.595Z,4.0799
2019-05-01T01:58:46.375Z,3.9993
2019-05-01T02:00:50.532Z,3.9590
2019-05-01T02:02:54.232Z,3.9691
2019-05-01T02:04:58.098Z,4.0195
2019-05-01T02:07:02.478Z,4.0799
2019-05-01T02:09:06.201Z,4.0497
2019-05-01T02:11:10.183Z,3.9993
2019-05-01T02:13:13.562Z,3.9389
2019-05-01T02:15:17.218Z,3.8785
2019-05-01T02:17:20.900Z,3.8583
2019-05-01T02:19:24.385Z,3.7979
2019-05-01T02:21:28.089Z,3.7778
2019-05-01T02:23:31.971Z,3.7576
2019-05-01T02:25:35.708Z,3.7274
2019-05-01T02:27:39.436Z,3.7173
2019-05-01T02:29:43.292Z,3.7274
2019-05-01T02:31:47.139Z,3.7173
2019-05-01T02:33:51.007Z,3.7173
2019-05-01T02:35:54.738Z,3.7274
2019-05-01T02:37:58.714Z,3.7173
2019-05-01T02:40:02.619Z,3.6972
2019-05-01T02:42:06.721Z,3.6871
2019-05-01T02:44:10.574Z,3.6871
2019-05-01T02:46:14.242Z,3.6569
2019-05-01T02:48:18.327Z,3.6569
2019-05-01T02:50:22.286Z,3.6166
2019-05-01T02:52:26.325Z,3.5965
2019-05-01T02:54:30.279Z,3.5663
2019-05-01T02:56:34.093Z,3.5059
2019-05-01T02:58:37.660Z,3.4958
2019-05-01T03:00:40.620Z,3.4454
2019-05-01T03:02:45.001Z,3.4656
2019-05-01T03:04:49.118Z,3.4253
2019-05-01T03:06:52.896Z,3.4152
2019-05-01T03:08:57.800Z,3.3850
2019-05-01T03:11:01.452Z,3.3548
2019-05-01T03:13:05.211Z,3.3347
2019-05-01T03:15:08.661Z,3.3145
2019-05-01T03:17:12.189Z,3.2843
2019-05-01T03:19:15.630Z,3.2843
2019-05-01T03:21:19.365Z,3.2642
2019-05-01T03:23:23.220Z,3.2843
2019-05-01T03:25:26.834Z,3.3347
2019-05-01T03:27:30.492Z,3.4152
2019-05-01T03:29:34.103Z,3.4756
2019-05-01T03:31:37.943Z,3.5361
2019-05-01T03:33:41.820Z,3.5764
2019-05-01T03:35:45.243Z,3.6569
2019-05-01T03:37:49.125Z,3.7173
2019-05-01T03:39:52.906Z,3.7878
2019-05-01T03:41:56.768Z,3.8684
2019-05-01T03:44:00.235Z,3.9288
2019-05-01T03:46:04.001Z,3.9993
2019-05-01T03:48:07.676Z,4.0799
2019-05-01T03:50:11.650Z,4.1504
2019-05-01T03:52:15.441Z,4.2310
2019-05-01T03:54:19.165Z,4.3015
2019-05-01T03:56:23.233Z,4.4022
2019-05-01T03:58:27.030Z,4.4827
2019-05-01T04:00:30.227Z,4.5834
2019-05-01T04:02:34.636Z,4.6338
2019-05-01T04:04:38.591Z,4.7345
2019-05-01T04:06:42.485Z,4.8352
2019-05-01T04:08:46.404Z,4.9359
2019-05-01T04:10:50.275Z,5.0266
2019-05-01T04:12:53.197Z,5.0870
2019-05-01T04:14:56.027Z,5.1776
2019-05-01T04:16:59.960Z,5.2179
2019-05-01T04:19:03.637Z,5.3085
2019-05-01T04:21:07.662Z,5.3589
2019-05-01T04:23:11.693Z,5.3891
2019-05-01T04:25:15.725Z,5.4294
2019-05-01T04:27:19.160Z,5.4797
2019-05-01T04:29:22.848Z,5.5603
2019-05-01T04:31:26.534Z,5.6107
2019-05-01T04:33:30.433Z,5.6812
2019-05-01T04:35:34.196Z,5.6812
2019-05-01T04:37:38.385Z,5.6812
2019-05-01T04:39:42.280Z,5.7214
2019-05-01T04:41:46.103Z,5.7516
2019-05-01T04:43:49.814Z,5.8221
2019-05-01T04:45:53.284Z,5.8624
2019-05-01T04:47:57.387Z,5.9430
2019-05-01T04:50:01.121Z,6.0034
2019-05-01T04:52:04.528Z,6.0638
2019-05-01T04:54:08.204Z,6.0941
2019-05-01T04:56:12.124Z,6.1545
2019-05-01T04:58:15.910Z,6.1948
2019-05-01T05:00:20.182Z,6.2451
2019-05-01T05:02:23.868Z,6.2955
2019-05-01T05:04:28.207Z,6.3358
2019-05-01T05:06:32.071Z,6.4062
2019-05-01T05:08:35.827Z,6.4767
2019-05-01T05:10:39.691Z,6.5170
2019-05-01T05:12:43.553Z,6.5372
2019-05-01T05:14:48.340Z,6.5573
2019-05-01T05:16:52.300Z,6.5775
2019-05-01T05:18:56.160Z,6.6177
2019-05-01T05:21:00.304Z,6.6983
2019-05-01T05:23:04.069Z,6.7587
2019-05-01T05:25:08.153Z,6.7990
2019-05-01T05:27:11.392Z,6.8494
2019-05-01T05:29:15.182Z,6.9098
2019-05-01T05:31:19.036Z,6.9702
2019-05-01T05:33:22.865Z,7.0508
2019-05-01T05:35:26.051Z,7.0911
2019-05-01T05:37:30.098Z,7.1313
2019-05-01T05:39:33.892Z,7.2018
2019-05-01T05:41:37.935Z,7.2723
2019-05-01T05:43:41.741Z,7.3227
2019-05-01T05:45:45.568Z,7.4234
2019-05-01T05:47:49.559Z,7.4939
2019-05-01T05:49:53.361Z,7.5342
2019-05-01T05:51:57.318Z,7.5543
2019-05-01T05:54:01.193Z,7.5745
2019-05-01T05:56:05.104Z,7.6147
2019-05-01T05:58:09.283Z,7.6651
2019-05-01T06:00:12.251Z,7.7356
2019-05-01T06:02:16.504Z,7.7960
2019-05-01T06:04:20.807Z,7.8464
2019-05-01T06:06:25.312Z,7.8564
2019-05-01T06:08:29.508Z,7.9269
2019-05-01T06:10:33.796Z,7.9974
2019-05-01T06:12:37.275Z,8.0679
2019-05-01T06:14:41.234Z,8.1787
2019-05-01T06:16:46.889Z,8.2190
2019-05-01T06:18:53.787Z,8.2794
2019-05-01T06:21:02.272Z,8.2895
2019-05-01T06:23:07.155Z,8.2996
2019-05-01T06:25:21.243Z,8.3600
2019-05-01T06:27:20.630Z,8.3701
2019-05-01T06:29:24.990Z,8.4003
2019-05-01T06:31:29.412Z,8.4406
2019-05-01T06:33:43.833Z,8.4708
2019-05-01T06:35:42.857Z,8.5010
2019-05-01T06:37:47.283Z,8.5614
2019-05-01T06:39:51.678Z,8.6319
2019-05-01T06:41:55.869Z,8.7326
2019-05-01T06:44:02.189Z,8.7930
2019-05-01T06:46:08.042Z,8.8937
2019-05-01T06:48:14.199Z,8.9642
2019-05-01T06:50:21.800Z,8.9844
2019-05-01T06:52:29.396Z,8.9542
2019-05-01T06:54:35.169Z,8.9642
2019-05-01T06:56:39.518Z,8.9944
2019-05-01T06:58:43.916Z,9.0549
2019-05-01T07:00:48.498Z,9.1455
2019-05-01T07:02:52.761Z,9.2059
2019-05-01T07:04:57.175Z,9.2764
2019-05-01T07:07:02.010Z,9.3066
2019-05-01T07:09:06.966Z,9.3872
2019-05-01T07:11:16.628Z,9.4778
2019-05-01T07:13:21.059Z,9.5987
2019-05-01T07:15:26.847Z,9.7195
2019-05-01T07:17:33.341Z,9.7800
2019-05-01T07:19:40.350Z,9.8303
2019-05-01T07:21:44.831Z,9.8102
2019-05-01T07:23:52.203Z,9.8907
2019-05-01T07:25:57.555Z,9.9411
2019-05-01T07:28:01.900Z,10.0217
2019-05-01T07:30:06.271Z,10.0519
2019-05-01T07:32:16.408Z,10.1526
2019-05-01T07:34:21.767Z,10.2936
2019-05-01T07:36:30.057Z,10.3641
2019-05-01T07:38:38.192Z,10.4245
2019-05-01T07:40:43.350Z,10.5051
2019-05-01T07:42:48.193Z,10.5554
2019-05-01T07:44:52.739Z,10.6662
2019-05-01T07:46:57.021Z,10.7266
2019-05-01T07:49:01.284Z,10.8374
2019-05-01T07:51:07.115Z,10.9583
2019-05-01T07:53:13.282Z,11.0187
2019-05-01T07:55:18.257Z,11.0690
2019-05-01T07:57:23.108Z,11.0892
2019-05-01T07:59:28.762Z,11.1697
2019-05-01T08:01:33.145Z,11.2704
2019-05-01T08:03:38.001Z,11.3611
2019-05-01T08:05:46.832Z,11.4618
2019-05-01T08:07:51.269Z,11.5826
2019-05-01T08:09:54.713Z,11.7337
2019-05-01T08:11:59.024Z,11.8243
2019-05-01T08:14:07.518Z,11.9351
2019-05-01T08:16:10.892Z,12.0660
2019-05-01T08:18:15.557Z,12.1567
2019-05-01T08:20:20.256Z,12.2272
2019-05-01T08:22:24.391Z,12.3782
2019-05-01T08:24:28.685Z,12.6501
2019-05-01T08:26:33.568Z,12.8616
2019-05-01T08:28:37.838Z,13.0026
2019-05-01T08:30:42.204Z,13.1235
2019-05-01T08:32:45.702Z,13.4558
2019-05-01T08:34:49.961Z,13.9493
2019-05-01T08:36:54.262Z,14.3219
2019-05-01T08:38:58.636Z,14.3924
2019-05-01T08:41:02.698Z,14.4327
2019-05-01T08:43:07.181Z,14.5837
2019-05-01T08:45:11.576Z,14.9161
2019-05-01T08:47:15.956Z,15.2283
2019-05-01T08:49:20.265Z,15.5405
2019-05-01T08:51:24.605Z,15.8023
2019-05-01T08:53:28.224Z,16.0440
2019-05-01T08:55:32.635Z,16.2656
2019-05-01T08:57:39.195Z,16.4569
2019-05-01T08:59:44.888Z,16.6583
2019-05-01T09:01:50.569Z,16.8597
2019-05-01T09:03:58.528Z,17.0108
2019-05-01T09:06:02.042Z,17.1921
2019-05-01T09:08:05.376Z,17.4036
2019-05-01T09:10:09.361Z,17.5949
2019-05-01T09:12:13.609Z,17.7863
2019-05-01T09:14:18.166Z,17.9474
2019-05-01T09:16:23.350Z,18.1085
2019-05-01T09:18:32.076Z,18.2898
2019-05-01T09:20:36.410Z,18.4711
2019-05-01T09:22:40.870Z,18.6624
2019-05-01T09:24:45.528Z,18.7833
2019-05-01T09:26:51.437Z,18.9444
2019-05-01T09:28:55.616Z,19.0753
2019-05-01T09:31:02.097Z,19.2163
2019-05-01T09:33:08.047Z,19.3069
2019-05-01T09:35:16.046Z,19.3875
2019-05-01T09:37:20.702Z,19.4580
2019-05-01T09:39:25.061Z,19.4983
2019-05-01T09:41:37.942Z,19.5587
2019-05-01T09:43:38.608Z,19.6494
2019-05-01T09:45:42.661Z,19.7098
2019-05-01T09:47:46.346Z,19.8004
2019-05-01T09:49:54.078Z,19.9213
2019-05-01T09:51:58.261Z,19.9817
2019-05-01T09:54:05.573Z,20.0623
2019-05-01T09:56:11.342Z,20.1025
2019-05-01T09:58:15.073Z,20.1428
2019-05-01T10:00:19.529Z,20.1831
2019-05-01T10:02:23.644Z,20.2435
2019-05-01T10:04:30.195Z,20.3946
2019-05-01T10:06:36.833Z,20.5356
2019-05-01T10:08:41.902Z,20.7169
2019-05-01T10:10:46.452Z,20.7370
2019-05-01T10:12:51.126Z,20.7370
2019-05-01T10:14:55.520Z,20.7874
2019-05-01T10:16:59.229Z,20.8881
2019-05-01T10:19:03.315Z,20.9888
2019-05-01T10:21:07.864Z,21.1197
2019-05-01T10:23:13.170Z,21.2405
2019-05-01T10:25:19.138Z,21.3110
2019-05-01T10:27:23.616Z,21.3815
2019-05-01T10:29:27.959Z,21.4319
2019-05-01T10:31:32.427Z,21.4722
2019-05-01T10:33:36.567Z,21.5024
2019-05-01T10:35:42.727Z,21.4722
2019-05-01T10:37:47.297Z,21.4722
2019-05-01T10:39:54.015Z,21.4923
2019-05-01T10:42:00.024Z,21.5225
2019-05-01T10:44:04.986Z,21.5930
2019-05-01T10:46:09.301Z,21.6132
2019-05-01T10:48:13.748Z,21.5829
2019-05-01T10:50:18.405Z,21.5930
2019-05-01T10:52:22.717Z,21.6434
2019-05-01T10:54:27.264Z,21.6937
2019-05-01T10:56:31.335Z,21.7743
2019-05-01T10:58:35.622Z,21.8649
2019-05-01T11:00:39.955Z,21.8951
2019-05-01T11:02:44.355Z,21.9958
2019-05-01T11:04:49.133Z,21.9958
2019-05-01T11:06:53.429Z,21.9757
2019-05-01T11:08:57.724Z,21.9958
2019-05-01T11:11:02.147Z,21.9958
2019-05-01T11:13:07.811Z,21.9556
2019-05-01T11:15:11.741Z,21.9153
2019-05-01T11:17:14.765Z,21.9858
2019-05-01T11:19:18.348Z,22.0160
2019-05-01T11:21:22.792Z,22.0261
2019-05-01T11:23:26.889Z,22.0865
2019-05-01T11:25:31.219Z,22.1671
2019-05-01T11:27:35.000Z,22.2476
2019-05-01T11:29:38.912Z,22.2980
2019-05-01T11:31:43.372Z,22.3080
2019-05-01T11:33:47.405Z,22.3483
2019-05-01T11:35:51.509Z,22.3685
2019-05-01T11:37:55.117Z,22.4490
2019-05-01T11:39:58.545Z,22.4692
2019-05-01T11:42:02.203Z,22.4692
2019-05-01T11:44:05.671Z,22.4490
2019-05-01T11:46:09.941Z,22.4490
2019-05-01T11:48:13.873Z,22.3987
2019-05-01T11:50:17.608Z,22.4289
2019-05-01T11:52:21.736Z,22.4289
2019-05-01T11:54:25.354Z,22.4289
2019-05-01T11:56:29.385Z,22.4591
2019-05-01T11:58:33.326Z,22.4692
2019-05-01T12:00:37.177Z,22.5195
2019-05-01T12:02:41.177Z,22.5800
2019-05-01T12:04:44.620Z,22.5699
2019-05-01T12:06:48.173Z,22.5397
2019-05-01T12:08:51.870Z,22.4893
2019-05-01T12:10:55.700Z,22.3987
2019-05-01T12:12:59.669Z,22.3080
2019-05-01T12:15:03.108Z,22.2678
2019-05-01T12:17:06.844Z,22.2073
2019-05-01T12:19:10.366Z,22.1368
2019-05-01T12:21:14.169Z,22.1368
2019-05-01T12:23:17.994Z,22.1469
2019-05-01T12:25:21.738Z,22.1771
2019-05-01T12:27:25.635Z,22.1771
2019-05-01T12:29:29.215Z,22.1469
2019-05-01T12:31:33.367Z,22.0261
2019-05-01T12:33:36.575Z,21.9052
2019-05-01T12:35:40.359Z,21.8246
2019-05-01T12:37:44.038Z,21.7944
2019-05-01T12:39:48.439Z,21.7743
2019-05-01T12:41:52.627Z,21.7944
2019-05-01T12:43:56.623Z,21.7944
2019-05-01T12:46:00.295Z,21.7542
2019-05-01T12:48:03.730Z,21.7139
2019-05-01T12:50:07.452Z,21.6837
2019-05-01T12:52:11.129Z,21.6534
2019-05-01T12:54:15.102Z,21.6937
2019-05-01T12:56:18.805Z,21.7139
2019-05-01T12:58:23.027Z,21.6837
2019-05-01T13:00:27.266Z,21.6434
2019-05-01T13:02:30.973Z,21.6132
2019-05-01T13:04:35.164Z,21.5427
2019-05-01T13:06:48.919Z,21.5930
2019-05-01T13:08:47.734Z,21.6434
2019-05-01T13:10:51.461Z,21.6837
2019-05-01T13:12:55.081Z,21.7542
2019-05-01T13:14:58.888Z,21.8347
2019-05-01T13:17:02.724Z,21.9757
2019-05-01T13:19:06.725Z,22.0663
2019-05-01T13:21:10.521Z,22.1469
2019-05-01T13:23:13.925Z,22.2375
2019-05-01T13:25:17.713Z,22.2476
2019-05-01T13:27:21.568Z,22.2678
2019-05-01T13:29:25.251Z,22.1771
2019-05-01T13:31:29.089Z,22.1771
2019-05-01T13:33:32.874Z,22.2174
2019-05-01T13:35:37.086Z,22.2778
2019-05-01T13:37:40.963Z,22.3282
2019-05-01T13:39:44.602Z,22.3080
2019-05-01T13:41:48.617Z,22.2778
2019-05-01T13:43:52.380Z,22.2980
2019-05-01T13:45:56.348Z,22.3584
2019-05-01T13:47:59.993Z,22.3987
2019-05-01T13:50:03.951Z,22.4490
2019-05-01T13:52:07.673Z,22.5397
2019-05-01T13:54:11.376Z,22.6807
2019-05-01T13:56:15.022Z,22.7512
2019-05-01T13:58:18.726Z,22.8519
2019-05-01T14:00:22.703Z,22.9224
2019-05-01T14:02:26.435Z,22.8519
2019-05-01T14:04:30.295Z,22.7713
2019-05-01T14:06:34.223Z,22.8317
2019-05-01T14:08:38.012Z,22.8821
2019-05-01T14:10:41.907Z,22.8619
2019-05-01T14:12:45.673Z,22.9123
2019-05-01T14:14:49.528Z,23.0533
2019-05-01T14:16:53.474Z,23.1943
2019-05-01T14:18:57.421Z,23.3051
2019-05-01T14:21:01.210Z,23.3856
2019-05-01T14:23:04.886Z,23.4259
2019-05-01T14:25:08.358Z,23.4158
2019-05-01T14:27:12.340Z,23.4662
2019-05-01T14:29:16.064Z,23.5266
2019-05-01T14:31:19.488Z,23.6072
2019-05-01T14:33:23.045Z,23.5669
2019-05-01T14:35:26.945Z,23.4561
2019-05-01T14:37:30.690Z,23.3151
2019-05-01T14:39:34.371Z,23.3554
2019-05-01T14:41:38.305Z,23.3957
2019-05-01T14:43:42.325Z,23.3856
2019-05-01T14:45:45.731Z,23.4158
2019-05-01T14:47:50.195Z,23.3755
2019-05-01T14:49:54.127Z,23.2748
2019-05-01T14:51:57.843Z,23.1741
2019-05-01T14:54:01.568Z,23.1540
2019-05-01T14:56:05.313Z,23.1741
2019-05-01T14:58:09.365Z,23.2748
2019-05-01T15:00:13.267Z,23.3957
2019-05-01T15:02:17.169Z,23.4964
2019-05-01T15:04:20.619Z,23.5065
2019-05-01T15:06:24.369Z,23.5266
2019-05-01T15:08:28.242Z,23.5367
2019-05-01T15:10:32.129Z,23.6072
2019-05-01T15:12:36.239Z,23.6978
2019-05-01T15:14:39.913Z,23.7582
2019-05-01T15:16:43.659Z,23.6978
2019-05-01T15:18:47.538Z,23.6475
2019-05-01T15:20:50.984Z,23.5468
2019-05-01T15:22:54.597Z,23.4763
2019-05-01T15:24:58.409Z,23.3856
2019-05-01T15:27:22.726Z,23.3453
2019-05-01T15:29:27.198Z,23.2748
2019-05-01T15:31:31.557Z,23.2849
2019-05-01T15:33:35.858Z,23.3051
2019-05-01T15:35:40.266Z,23.2748
2019-05-01T15:37:56.033Z,23.2043
2019-05-01T15:39:53.753Z,23.1641
2019-05-01T15:41:58.142Z,23.1036
2019-05-01T15:44:02.294Z,23.0231
2019-05-01T15:46:06.568Z,22.9828
2019-05-01T15:48:10.864Z,22.9425
2019-05-01T15:50:15.282Z,22.7612
2019-05-01T15:52:19.644Z,22.6706
2019-05-01T15:54:23.840Z,22.6505
2019-05-01T15:56:27.999Z,22.6001
2019-05-01T15:58:32.292Z,22.5397
2019-05-01T16:00:36.363Z,22.4188
2019-05-01T16:02:40.765Z,22.3584
2019-05-01T16:04:45.056Z,22.3282
2019-05-01T16:06:49.661Z,22.2678
2019-05-01T16:08:54.039Z,22.2375
2019-05-01T16:10:58.406Z,22.2476
2019-05-01T16:13:02.792Z,22.2375
2019-05-01T16:15:07.128Z,22.1771
2019-05-01T16:17:11.198Z,22.0865
2019-05-01T16:19:15.462Z,21.9354
2019-05-01T16:21:20.011Z,21.8750
2019-05-01T16:23:24.332Z,21.7441
2019-05-01T16:25:28.588Z,21.6232
2019-05-01T16:27:33.298Z,21.5225
2019-05-01T16:29:37.694Z,21.4218
2019-05-01T16:31:42.230Z,21.3211
2019-05-01T16:33:46.358Z,21.1600
2019-05-01T16:35:50.721Z,21.0995
2019-05-01T16:37:55.075Z,21.0291
2019-05-01T16:39:59.447Z,20.9787
2019-05-01T16:42:03.824Z,20.8679
2019-05-01T16:44:08.312Z,20.8377
2019-05-01T16:46:12.609Z,20.7874
2019-05-01T16:48:16.954Z,20.7571
2019-05-01T16:50:21.052Z,20.6665
2019-05-01T16:52:25.420Z,20.4752
2019-05-01T16:54:29.746Z,20.3241
2019-05-01T16:56:34.117Z,20.2133
2019-05-01T16:58:38.381Z,20.1025
2019-05-01T17:00:42.684Z,19.9918
2019-05-01T17:02:47.079Z,19.9515
2019-05-01T17:04:51.681Z,19.9213
2019-05-01T17:06:56.052Z,19.8810
2019-05-01T17:09:00.483Z,19.8105
2019-05-01T17:11:04.586Z,19.6494
2019-05-01T17:13:08.904Z,19.4781
2019-05-01T17:15:13.247Z,19.3573
2019-05-01T17:17:17.771Z,19.2163
2019-05-01T17:19:22.110Z,19.0652
2019-05-01T17:21:26.456Z,19.0048
2019-05-01T17:23:30.520Z,18.9142
2019-05-01T17:25:34.935Z,18.8437
2019-05-01T17:27:39.059Z,18.7329
2019-05-01T17:29:43.393Z,18.5718
2019-05-01T17:31:47.711Z,18.4409
2019-05-01T17:33:55.569Z,18.2697
2019-05-01T17:36:01.532Z,18.1186
2019-05-01T17:38:05.946Z,17.9877
2019-05-01T17:40:10.182Z,17.8366
2019-05-01T17:42:14.571Z,17.6956
2019-05-01T17:44:20.161Z,17.5143
2019-05-01T17:46:27.533Z,17.3633
2019-05-01T17:48:33.614Z,17.1820
2019-05-01T17:50:39.149Z,17.0007
2019-05-01T17:52:43.603Z,16.8497
2019-05-01T17:54:48.055Z,16.6684
2019-05-01T17:56:53.742Z,16.4871
2019-05-01T17:59:00.311Z,16.3058
2019-05-01T18:01:04.389Z,16.1246
2019-05-01T18:03:08.931Z,15.9332
2019-05-01T18:05:12.930Z,15.7419
2019-05-01T18:07:17.231Z,15.5304
2019-05-01T18:09:21.459Z,15.3189
2019-05-01T18:11:25.970Z,15.1276
2019-05-01T18:13:30.460Z,14.9161
2019-05-01T18:15:34.787Z,14.6844
2019-05-01T18:17:39.076Z,14.4629
2019-05-01T18:19:43.306Z,14.2413
2019-05-01T18:21:51.948Z,13.9996
2019-05-01T18:23:56.399Z,13.7680
2019-05-01T18:26:04.748Z,13.5464
2019-05-01T18:28:10.367Z,13.2947
2019-05-01T18:30:15.803Z,13.0530
2019-05-01T18:32:23.873Z,12.8214
2019-05-01T18:34:28.237Z,12.5998
2019-05-01T18:36:32.585Z,12.3883
2019-05-01T18:38:37.008Z,12.1365
2019-05-01T18:40:41.312Z,11.9553
2019-05-01T18:42:45.351Z,11.7538
2019-05-01T18:44:49.635Z,11.5222
2019-05-01T18:46:54.027Z,11.3611
2019-05-01T18:48:58.326Z,11.1899
2019-05-01T18:51:02.533Z,11.0388
2019-05-01T18:53:11.010Z,10.8777
2019-05-01T18:55:15.787Z,10.6964
2019-05-01T18:57:20.015Z,10.5554
2019-05-01T18:59:24.112Z,10.4044
2019-05-01T19:01:28.415Z,10.2734
2019-05-01T19:03:37.069Z,10.1425
2019-05-01T19:05:43.115Z,10.0116
2019-05-01T19:07:51.329Z,9.8907
2019-05-01T19:09:55.678Z,9.7598
2019-05-01T19:12:00.001Z,9.6390
2019-05-01T19:14:04.426Z,9.5282
2019-05-01T19:16:09.941Z,9.4174
2019-05-01T19:18:14.109Z,9.3167
2019-05-01T19:20:17.245Z,9.2361
2019-05-01T19:22:21.444Z,9.1455
2019-05-01T19:24:25.768Z,9.1052
2019-05-01T19:26:30.039Z,9.0448
2019-05-01T19:28:34.177Z,8.9642
2019-05-01T19:30:37.683Z,8.9240
2019-05-01T19:32:41.127Z,8.8434
2019-05-01T19:34:44.646Z,8.7930
2019-05-01T19:36:48.122Z,8.7628
2019-05-01T19:38:51.580Z,8.7024
2019-05-01T19:40:56.052Z,8.6218
2019-05-01T19:43:00.427Z,8.5614
2019-05-01T19:45:03.837Z,8.5312
2019-05-01T19:47:07.968Z,8.4708
2019-05-01T19:49:12.237Z,8.4003
2019-05-01T19:51:19.154Z,8.3398
2019-05-01T19:53:24.539Z,8.2895
2019-05-01T19:55:28.899Z,8.2593
2019-05-01T19:57:33.337Z,8.2190
2019-05-01T19:59:37.476Z,8.1586
2019-05-01T20:01:44.067Z,8.0981
2019-05-01T20:03:49.552Z,8.0679
2019-05-01T20:05:53.831Z,8.0377
2019-05-01T20:07:57.923Z,8.0075
2019-05-01T20:10:02.050Z,7.9773
2019-05-01T20:12:05.650Z,7.9471
2019-05-01T20:14:10.329Z,7.9471
2019-05-01T20:16:14.638Z,7.9169
2019-05-01T20:18:19.007Z,7.8867
2019-05-01T20:20:23.265Z,7.8464
2019-05-01T20:22:26.992Z,7.8262
2019-05-01T20:24:31.459Z,7.8262
2019-05-01T20:26:35.699Z,7.8162
2019-05-01T20:28:40.030Z,7.7859
2019-05-01T20:30:44.521Z,7.7356
2019-05-01T20:32:48.710Z,7.6852
2019-05-01T20:34:53.906Z,7.6450
2019-05-01T20:36:58.380Z,7.6047
2019-05-01T20:39:02.720Z,7.5241
2019-05-01T20:41:10.373Z,7.4939
2019-05-01T20:43:16.570Z,7.4838
2019-05-01T20:45:20.163Z,7.4637
2019-05-01T20:47:34.869Z,7.4637
2019-05-01T20:49:36.410Z,7.4234
2019-05-01T20:51:43.005Z,7.3730
2019-05-01T20:53:47.062Z,7.3529
2019-05-01T20:55:51.322Z,7.3730
2019-05-01T20:57:55.698Z,7.3529
2019-05-01T21:00:00.135Z,7.3428
2019-05-01T21:02:08.096Z,7.3126
2019-05-01T21:04:14.094Z,7.3126
2019-05-01T21:06:18.222Z,7.3026
2019-05-01T21:08:22.529Z,7.2824
2019-05-01T21:10:29.952Z,7.2723
2019-05-01T21:12:35.269Z,7.2321
2019-05-01T21:14:38.703Z,7.2018
2019-05-01T21:16:42.553Z,7.1616
2019-05-01T21:18:47.109Z,7.1313
2019-05-01T21:20:51.566Z,7.1011
2019-05-01T21:22:55.874Z,7.0911
2019-05-01T21:25:00.250Z,7.0609
2019-05-01T21:27:04.244Z,7.0306
2019-05-01T21:29:08.985Z,7.0206
2019-05-01T21:31:13.797Z,6.9904
2019-05-01T21:33:18.271Z,6.9400
2019-05-01T21:35:23.948Z,6.9199
2019-05-01T21:37:28.493Z,6.8896
2019-05-01T21:39:33.446Z,6.8695
2019-05-01T21:41:37.570Z,6.8494
2019-05-01T21:43:42.495Z,6.8091
2019-05-01T21:45:46.907Z,6.7587
2019-05-01T21:47:52.840Z,6.7084
2019-05-01T21:49:57.508Z,6.6580
2019-05-01T21:52:03.628Z,6.6379
2019-05-01T21:54:09.214Z,6.5775
2019-05-01T21:56:13.518Z,6.5170
2019-05-01T21:58:21.025Z,6.4767
2019-05-01T22:00:27.323Z,6.4062
2019-05-01T22:02:31.397Z,6.3760
2019-05-01T22:04:35.685Z,6.3559
2019-05-01T22:06:40.013Z,6.2955
2019-05-01T22:08:44.337Z,6.2250
2019-05-01T22:10:52.005Z,6.2250
2019-05-01T22:12:56.888Z,6.2149
2019-05-01T22:15:01.175Z,6.1847
2019-05-01T22:17:05.608Z,6.1847
2019-05-01T22:19:09.576Z,6.1847
2019-05-01T22:21:13.845Z,6.1545
2019-05-01T22:23:21.930Z,6.1545
2019-05-01T22:25:26.975Z,6.1545
2019-05-01T22:27:31.402Z,6.1545
2019-05-01T22:29:35.727Z,6.1545
2019-05-01T22:31:39.567Z,6.1545
2019-05-01T22:33:43.890Z,6.1444
2019-05-01T22:35:48.288Z,6.1243
2019-05-01T22:37:52.385Z,6.1243
2019-05-01T22:39:56.722Z,6.1444
2019-05-01T22:42:01.035Z,6.0941
2019-05-01T22:44:05.319Z,6.0941
2019-05-01T22:46:09.671Z,6.0840
2019-05-01T22:48:13.975Z,6.0840
2019-05-01T22:50:18.443Z,6.0638
2019-05-01T22:52:22.589Z,6.0135
2019-05-01T22:54:26.951Z,5.9732
2019-05-01T22:56:32.128Z,5.9631
2019-05-01T22:58:36.494Z,5.9128
2019-05-01T23:00:40.757Z,5.8926
2019-05-01T23:02:45.075Z,5.8624
2019-05-01T23:04:52.089Z,5.8624
2019-05-01T23:06:56.595Z,5.8322
2019-05-01T23:09:00.038Z,5.8121
2019-05-01T23:11:03.164Z,5.7819
2019-05-01T23:13:07.251Z,5.7819
2019-05-01T23:15:11.785Z,5.7516
2019-05-01T23:17:16.084Z,5.7416
2019-05-01T23:19:22.760Z,5.6812
2019-05-01T23:21:29.762Z,5.6812
2019-05-01T23:23:34.044Z,5.6711
2019-05-01T23:25:41.236Z,5.6509
2019-05-01T23:27:46.730Z,5.6308
2019-05-01T23:29:50.990Z,5.6308
2019-05-01T23:31:55.207Z,5.6006
2019-05-01T23:33:59.569Z,5.5804
2019-05-01T23:36:03.856Z,5.5704
2019-05-01T23:38:08.255Z,5.5603
2019-05-01T23:40:15.586Z,5.5402
2019-05-01T23:42:21.227Z,5.5301
2019-05-01T23:44:25.476Z,5.5301
2019-05-01T23:46:29.137Z,5.4898
2019-05-01T23:48:33.502Z,5.4495
2019-05-01T23:50:37.555Z,5.4294
2019-05-01T23:52:40.715Z,5.4294
2019-05-01T23:54:44.173Z,5.4495
2019-05-01T23:56:48.634Z,5.4294
2019-05-01T23:58:51.755Z,5.3992
